createdAt,value
2019-04-30T00:00:02.591Z,1020.27
2019-04-30T00:01:07.465Z,1020.27
2019-04-30T00:02:10.040Z,1020.23
2019-04-30T00:03:17.971Z,1020.23
2019-04-30T00:04:18.598Z,1020.20
2019-04-30T00:05:22.848Z,1020.17
2019-04-30T00:06:34.082Z,1020.16
2019-04-30T00:07:31.410Z,1020.17
2019-04-30T00:08:39.143Z,1020.14
2019-04-30T00:09:39.957Z,1020.14
2019-04-30T00:10:45.390Z,1020.16
2019-04-30T00:11:50.736Z,1020.14
2019-04-30T00:12:52.519Z,1020.16
2019-04-30T00:13:58.861Z,1020.16
2019-04-30T00:15:01.126Z,1020.14
2019-04-30T00:16:05.448Z,1020.12
2019-04-30T00:17:10.779Z,1020.15
2019-04-30T00:18:15.557Z,1020.13
2019-04-30T00:19:19.771Z,1020.13
2019-04-30T00:20:22.262Z,1020.09
2019-04-30T00:21:26.575Z,1020.09
2019-04-30T00:22:34.071Z,1020.07
2019-04-30T00:23:35.982Z,1020.06
2019-04-30T00:24:39.793Z,1020.04
2019-04-30T00:25:43.572Z,1020.05
2019-04-30T00:26:52.275Z,1020.02
2019-04-30T00:27:52.020Z,1019.99
2019-04-30T00:28:56.311Z,1019.96
2019-04-30T00:30:04.767Z,1019.95
2019-04-30T00:31:05.499Z,1019.91
2019-04-30T00:32:08.962Z,1019.93
2019-04-30T00:33:15.261Z,1019.95
2019-04-30T00:34:17.445Z,1019.93
2019-04-30T00:35:21.679Z,1019.92
2019-04-30T00:36:28.930Z,1019.92
2019-04-30T00:37:30.104Z,1019.93
2019-04-30T00:38:37.833Z,1019.94
2019-04-30T00:39:38.743Z,1019.91
2019-04-30T00:40:44.686Z,1019.92
2019-04-30T00:41:47.590Z,1019.90
2019-04-30T00:42:51.411Z,1019.94
2019-04-30T00:43:55.699Z,1019.93
2019-04-30T00:45:06.771Z,1019.95
2019-04-30T00:46:05.029Z,1019.94
2019-04-30T00:47:08.515Z,1019.94
2019-04-30T00:48:19.758Z,1019.94
2019-04-30T00:49:22.899Z,1019.89
2019-04-30T00:50:21.424Z,1019.89
2019-04-30T00:51:26.169Z,1019.90
2019-04-30T00:52:33.852Z,1019.88
2019-04-30T00:53:35.809Z,1019.87
2019-04-30T00:54:38.371Z,1019.85
2019-04-30T00:55:44.994Z,1019.84
2019-04-30T00:56:46.835Z,1019.83
2019-04-30T00:57:51.050Z,1019.83
2019-04-30T00:58:57.773Z,1019.82
2019-04-30T00:59:59.609Z,1019.83
2019-04-30T01:01:06.837Z,1019.79
2019-04-30T01:02:08.051Z,1019.77
2019-04-30T01:03:12.223Z,1019.75
2019-04-30T01:04:19.354Z,1019.73
2019-04-30T01:05:20.779Z,1019.73
2019-04-30T01:06:28.588Z,1019.72
2019-04-30T01:07:29.376Z,1019.73
2019-04-30T01:08:33.608Z,1019.73
2019-04-30T01:09:39.625Z,1019.67
2019-04-30T01:10:42.173Z,1019.67
2019-04-30T01:11:48.109Z,1019.68
2019-04-30T01:12:50.680Z,1019.69
2019-04-30T01:13:54.938Z,1019.68
2019-04-30T01:15:01.683Z,1019.67
2019-04-30T01:16:03.319Z,1019.64
2019-04-30T01:17:10.808Z,1019.66
2019-04-30T01:18:11.742Z,1019.65
2019-04-30T01:19:27.518Z,1019.65
2019-04-30T01:20:24.101Z,1019.63
2019-04-30T01:21:24.606Z,1019.63
2019-04-30T01:22:32.773Z,1019.62
2019-04-30T01:23:32.960Z,1019.62
2019-04-30T01:24:38.708Z,1019.62
2019-04-30T01:25:43.276Z,1019.62
2019-04-30T01:26:45.821Z,1019.64
2019-04-30T01:27:50.070Z,1019.62
2019-04-30T01:28:58.479Z,1019.61
2019-04-30T01:29:58.651Z,1019.60
2019-04-30T01:31:02.797Z,1019.58
2019-04-30T01:32:10.459Z,1019.55
2019-04-30T01:33:11.383Z,1019.52
2019-04-30T01:34:15.631Z,1019.51
2019-04-30T01:35:23.882Z,1019.53
2019-04-30T01:36:24.000Z,1019.51
2019-04-30T01:37:32.339Z,1019.54
2019-04-30T01:38:32.436Z,1019.53
2019-04-30T01:39:36.789Z,1019.50
2019-04-30T01:40:42.755Z,1019.47
2019-04-30T01:41:45.378Z,1019.48
2019-04-30T01:42:51.617Z,1019.46
2019-04-30T01:43:53.867Z,1019.45
2019-04-30T01:44:58.977Z,1019.45
2019-04-30T01:46:12.216Z,1019.45
2019-04-30T01:47:06.502Z,1019.45
2019-04-30T01:48:12.670Z,1019.43
2019-04-30T01:49:15.139Z,1019.43
2019-04-30T01:50:19.508Z,1019.42
2019-04-30T01:51:23.499Z,1019.41
2019-04-30T01:52:29.145Z,1019.39
2019-04-30T01:53:31.866Z,1019.40
2019-04-30T01:54:36.159Z,1019.41
2019-04-30T01:55:41.500Z,1019.42
2019-04-30T01:56:44.682Z,1019.41
2019-04-30T01:57:49.165Z,1019.40
2019-04-30T01:58:53.175Z,1019.39
2019-04-30T01:59:58.263Z,1019.39
2019-04-30T02:01:01.676Z,1019.40
2019-04-30T02:02:05.838Z,1019.38
2019-04-30T02:03:11.278Z,1019.38
2019-04-30T02:04:14.411Z,1019.37
2019-04-30T02:05:18.936Z,1019.37
2019-04-30T02:06:22.909Z,1019.37
2019-04-30T02:07:28.738Z,1019.36
2019-04-30T02:08:31.420Z,1019.36
2019-04-30T02:09:35.666Z,1019.35
2019-04-30T02:10:40.380Z,1019.34
2019-04-30T02:11:44.182Z,1019.33
2019-04-30T02:12:49.354Z,1019.35
2019-04-30T02:13:52.780Z,1019.35
2019-04-30T02:14:56.867Z,1019.35
2019-04-30T02:16:01.199Z,1019.36
2019-04-30T02:17:05.572Z,1019.35
2019-04-30T02:18:09.655Z,1019.36
2019-04-30T02:19:14.897Z,1019.34
2019-04-30T02:20:18.805Z,1019.32
2019-04-30T02:21:23.037Z,1019.33
2019-04-30T02:22:30.948Z,1019.30
2019-04-30T02:23:31.548Z,1019.29
2019-04-30T02:24:35.810Z,1019.29
2019-04-30T02:25:40.004Z,1019.26
2019-04-30T02:26:44.284Z,1019.29
2019-04-30T02:27:48.912Z,1019.30
2019-04-30T02:28:52.834Z,1019.30
2019-04-30T02:29:57.059Z,1019.29
2019-04-30T02:31:01.384Z,1019.30
2019-04-30T02:32:05.603Z,1019.32
2019-04-30T02:33:09.839Z,1019.30
2019-04-30T02:34:14.038Z,1019.31
2019-04-30T02:35:19.412Z,1019.29
2019-04-30T02:36:22.606Z,1019.29
2019-04-30T02:37:26.831Z,1019.27
2019-04-30T02:38:31.037Z,1019.24
2019-04-30T02:39:35.309Z,1019.23
2019-04-30T02:40:42.465Z,1019.25
2019-04-30T02:41:43.640Z,1019.26
2019-04-30T02:42:49.771Z,1019.27
2019-04-30T02:43:52.278Z,1019.26
2019-04-30T02:44:56.496Z,1019.26
2019-04-30T02:46:00.939Z,1019.23
2019-04-30T02:47:05.087Z,1019.23
2019-04-30T02:48:11.637Z,1019.24
2019-04-30T02:49:13.615Z,1019.23
2019-04-30T02:50:22.278Z,1019.24
2019-04-30T02:51:22.888Z,1019.21
2019-04-30T02:52:26.371Z,1019.21
2019-04-30T02:53:30.513Z,1019.20
2019-04-30T02:54:34.781Z,1019.19
2019-04-30T02:55:40.310Z,1019.22
2019-04-30T02:56:43.216Z,1019.24
2019-04-30T02:57:49.916Z,1019.23
2019-04-30T02:58:52.188Z,1019.24
2019-04-30T02:59:56.482Z,1019.26
2019-04-30T03:01:00.734Z,1019.26
2019-04-30T03:02:04.986Z,1019.24
2019-04-30T03:03:10.226Z,1019.23
2019-04-30T03:04:13.358Z,1019.23
2019-04-30T03:05:20.258Z,1019.23
2019-04-30T03:06:23.823Z,1019.25
2019-04-30T03:07:26.141Z,1019.25
2019-04-30T03:08:30.280Z,1019.24
2019-04-30T03:09:34.514Z,1019.25
2019-04-30T03:10:40.158Z,1019.23
2019-04-30T03:11:43.057Z,1019.27
2019-04-30T03:12:49.700Z,1019.26
2019-04-30T03:13:51.485Z,1019.28
2019-04-30T03:14:55.695Z,1019.29
2019-04-30T03:16:00.015Z,1019.28
2019-04-30T03:17:04.343Z,1019.28
2019-04-30T03:18:09.861Z,1019.29
2019-04-30T03:19:13.046Z,1019.31
2019-04-30T03:20:30.979Z,1019.31
2019-04-30T03:21:21.411Z,1019.30
2019-04-30T03:22:25.692Z,1019.31
2019-04-30T03:23:29.925Z,1019.32
2019-04-30T03:24:34.069Z,1019.30
2019-04-30T03:25:40.578Z,1019.29
2019-04-30T03:26:42.481Z,1019.28
2019-04-30T03:27:46.806Z,1019.28
2019-04-30T03:28:51.012Z,1019.27
2019-04-30T03:29:55.173Z,1019.28
2019-04-30T03:31:04.088Z,1019.30
2019-04-30T03:32:03.841Z,1019.29
2019-04-30T03:33:12.174Z,1019.28
2019-04-30T03:34:18.319Z,1019.27
2019-04-30T03:35:16.373Z,1019.27
2019-04-30T03:36:21.965Z,1019.27
2019-04-30T03:37:24.925Z,1019.27
2019-04-30T03:38:30.111Z,1019.24
2019-04-30T03:39:34.105Z,1019.23
2019-04-30T03:40:40.215Z,1019.24
2019-04-30T03:41:41.876Z,1019.24
2019-04-30T03:42:46.058Z,1019.26
2019-04-30T03:43:50.537Z,1019.27
2019-04-30T03:44:54.501Z,1019.28
2019-04-30T03:45:59.315Z,1019.30
2019-04-30T03:47:02.999Z,1019.30
2019-04-30T03:48:09.953Z,1019.29
2019-04-30T03:49:13.417Z,1019.27
2019-04-30T03:50:15.019Z,1019.28
2019-04-30T03:51:19.893Z,1019.27
2019-04-30T03:52:23.527Z,1019.25
2019-04-30T03:53:29.762Z,1019.26
2019-04-30T03:54:31.963Z,1019.24
2019-04-30T03:55:36.115Z,1019.21
2019-04-30T03:56:40.389Z,1019.22
2019-04-30T03:57:44.619Z,1019.20
2019-04-30T03:58:50.317Z,1019.21
2019-04-30T03:59:53.121Z,1019.21
2019-04-30T04:01:00.176Z,1019.23
2019-04-30T04:02:01.590Z,1019.23
2019-04-30T04:03:05.868Z,1019.22
2019-04-30T04:04:10.245Z,1019.19
2019-04-30T04:05:14.299Z,1019.19
2019-04-30T04:06:21.222Z,1019.17
2019-04-30T04:07:22.852Z,1019.16
2019-04-30T04:08:29.355Z,1019.15
2019-04-30T04:09:31.276Z,1019.15
2019-04-30T04:10:35.552Z,1019.16
2019-04-30T04:11:39.755Z,1019.16
2019-04-30T04:12:43.904Z,1019.16
2019-04-30T04:13:49.571Z,1019.17
2019-04-30T04:14:52.492Z,1019.14
2019-04-30T04:15:56.613Z,1019.14
2019-04-30T04:17:00.748Z,1019.12
2019-04-30T04:18:04.999Z,1019.12
2019-04-30T04:19:09.685Z,1019.13
2019-04-30T04:20:13.513Z,1019.10
2019-04-30T04:21:20.463Z,1019.12
2019-04-30T04:22:22.090Z,1019.13
2019-04-30T04:23:26.350Z,1019.14
2019-04-30T04:24:30.491Z,1019.14
2019-04-30T04:25:34.817Z,1019.14
2019-04-30T04:26:43.356Z,1019.13
2019-04-30T04:27:43.338Z,1019.14
2019-04-30T04:28:49.612Z,1019.14
2019-04-30T04:29:51.825Z,1019.14
2019-04-30T04:30:56.059Z,1019.13
2019-04-30T04:32:00.853Z,1019.12
2019-04-30T04:33:04.534Z,1019.13
2019-04-30T04:34:09.337Z,1019.13
2019-04-30T04:35:13.101Z,1019.14
2019-04-30T04:36:17.169Z,1019.14
2019-04-30T04:37:21.581Z,1019.12
2019-04-30T04:38:25.718Z,1019.12
2019-04-30T04:39:29.937Z,1019.13
2019-04-30T04:40:34.142Z,1019.14
2019-04-30T04:41:39.946Z,1019.14
2019-04-30T04:42:42.759Z,1019.11
2019-04-30T04:43:47.023Z,1019.13
2019-04-30T04:44:51.287Z,1019.13
2019-04-30T04:45:55.541Z,1019.14
2019-04-30T04:47:00.259Z,1019.16
2019-04-30T04:48:03.976Z,1019.13
2019-04-30T04:49:08.995Z,1019.09
2019-04-30T04:50:12.564Z,1019.07
2019-04-30T04:51:31.409Z,1019.07
2019-04-30T04:52:21.977Z,1019.07
2019-04-30T04:53:25.244Z,1019.08
2019-04-30T04:54:30.123Z,1019.08
2019-04-30T04:55:33.836Z,1019.07
2019-04-30T04:56:39.982Z,1019.04
2019-04-30T04:57:42.344Z,1019.03
2019-04-30T04:58:46.551Z,1019.04
2019-04-30T04:59:50.918Z,1019.04
2019-04-30T05:00:55.104Z,1019.03
2019-04-30T05:01:59.854Z,1019.05
2019-04-30T05:03:03.587Z,1018.99
2019-04-30T05:04:11.464Z,1019.03
2019-04-30T05:05:12.235Z,1019.04
2019-04-30T05:06:16.454Z,1019.03
2019-04-30T05:07:20.746Z,1019.03
2019-04-30T05:08:25.009Z,1019.03
2019-04-30T05:09:29.294Z,1019.04
2019-04-30T05:10:33.652Z,1019.04
2019-04-30T05:11:39.570Z,1019.05
2019-04-30T05:12:42.218Z,1019.04
2019-04-30T05:13:46.493Z,1019.04
2019-04-30T05:14:50.773Z,1019.03
2019-04-30T05:15:55.059Z,1019.03
2019-04-30T05:16:59.335Z,1019.02
2019-04-30T05:18:03.503Z,1019.01
2019-04-30T05:19:08.867Z,1019.03
2019-04-30T05:20:12.120Z,1019.03
2019-04-30T05:21:16.391Z,1019.01
2019-04-30T05:22:20.669Z,1018.98
2019-04-30T05:23:24.943Z,1018.96
2019-04-30T05:24:29.223Z,1018.94
2019-04-30T05:25:33.484Z,1018.95
2019-04-30T05:26:38.697Z,1018.94
2019-04-30T05:27:42.055Z,1018.92
2019-04-30T05:28:48.909Z,1018.93
2019-04-30T05:29:50.630Z,1018.91
2019-04-30T05:30:54.933Z,1018.91
2019-04-30T05:31:59.236Z,1018.90
2019-04-30T05:33:03.522Z,1018.92
2019-04-30T05:34:10.110Z,1018.90
2019-04-30T05:35:12.157Z,1018.91
2019-04-30T05:36:16.477Z,1018.91
2019-04-30T05:37:22.435Z,1018.89
2019-04-30T05:38:25.043Z,1018.86
2019-04-30T05:39:29.514Z,1018.85
2019-04-30T05:40:33.847Z,1018.85
2019-04-30T05:41:38.661Z,1018.79
2019-04-30T05:42:42.585Z,1018.76
2019-04-30T05:43:48.799Z,1018.73
2019-04-30T05:44:51.447Z,1018.69
2019-04-30T05:45:55.841Z,1018.66
2019-04-30T05:47:00.271Z,1018.62
2019-04-30T05:48:04.692Z,1018.61
2019-04-30T05:49:09.121Z,1018.60
2019-04-30T05:50:13.492Z,1018.60
2019-04-30T05:51:19.394Z,1018.58
2019-04-30T05:52:22.300Z,1018.54
2019-04-30T05:53:28.525Z,1018.54
2019-04-30T05:54:31.062Z,1018.53
2019-04-30T05:55:35.497Z,1018.54
2019-04-30T05:56:42.560Z,1018.58
2019-04-30T05:57:53.842Z,1018.56
2019-04-30T05:58:49.415Z,1018.53
2019-04-30T06:00:06.943Z,1018.55
2019-04-30T06:01:09.820Z,1018.54
2019-04-30T06:02:13.558Z,1018.55
2019-04-30T06:03:27.507Z,1018.55
2019-04-30T06:04:25.158Z,1018.55
2019-04-30T06:05:28.716Z,1018.55
2019-04-30T06:06:33.686Z,1018.56
2019-04-30T06:07:39.307Z,1018.58
2019-04-30T06:08:41.566Z,1018.57
2019-04-30T06:09:45.793Z,1018.58
2019-04-30T06:10:51.786Z,1018.58
2019-04-30T06:11:54.336Z,1018.62
2019-04-30T06:12:59.469Z,1018.59
2019-04-30T06:14:02.924Z,1018.59
2019-04-30T06:15:08.980Z,1018.61
2019-04-30T06:16:11.527Z,1018.59
2019-04-30T06:17:15.876Z,1018.58
2019-04-30T06:18:20.502Z,1018.58
2019-04-30T06:19:24.439Z,1018.60
2019-04-30T06:20:28.926Z,1018.60
2019-04-30T06:21:33.109Z,1018.58
2019-04-30T06:22:38.589Z,1018.59
2019-04-30T06:23:41.679Z,1018.58
2019-04-30T06:24:45.970Z,1018.58
2019-04-30T06:25:57.337Z,1018.58
2019-04-30T06:26:54.646Z,1018.59
2019-04-30T06:27:58.991Z,1018.59
2019-04-30T06:29:03.192Z,1018.59
2019-04-30T06:30:11.829Z,1018.57
2019-04-30T06:31:11.878Z,1018.55
2019-04-30T06:32:16.123Z,1018.55
2019-04-30T06:33:20.443Z,1018.54
2019-04-30T06:34:24.805Z,1018.57
2019-04-30T06:35:29.516Z,1018.55
2019-04-30T06:36:33.437Z,1018.55
2019-04-30T06:37:39.093Z,1018.55
2019-04-30T06:38:41.978Z,1018.57
2019-04-30T06:39:46.385Z,1018.59
2019-04-30T06:40:50.618Z,1018.59
2019-04-30T06:42:04.274Z,1018.58
2019-04-30T06:43:00.833Z,1018.60
2019-04-30T06:44:03.433Z,1018.60
2019-04-30T06:45:09.226Z,1018.60
2019-04-30T06:46:12.111Z,1018.60
2019-04-30T06:47:16.501Z,1018.59
2019-04-30T06:48:20.749Z,1018.58
2019-04-30T06:49:24.996Z,1018.59
2019-04-30T06:50:29.413Z,1018.62
2019-04-30T06:51:33.597Z,1018.62
2019-04-30T06:52:38.996Z,1018.61
2019-04-30T06:53:42.179Z,1018.61
2019-04-30T06:54:46.540Z,1018.62
2019-04-30T06:55:50.823Z,1018.62
2019-04-30T06:56:55.191Z,1018.63
2019-04-30T06:58:11.454Z,1018.63
2019-04-30T06:59:03.885Z,1018.62
2019-04-30T07:00:09.813Z,1018.63
2019-04-30T07:01:12.481Z,1018.63
2019-04-30T07:02:16.864Z,1018.61
2019-04-30T07:03:21.192Z,1018.62
2019-04-30T07:04:25.520Z,1018.60
2019-04-30T07:05:29.870Z,1018.62
2019-04-30T07:06:37.044Z,1018.61
2019-04-30T07:07:41.169Z,1018.61
2019-04-30T07:08:51.972Z,1018.61
2019-04-30T07:09:53.181Z,1018.61
2019-04-30T07:10:55.579Z,1018.61
2019-04-30T07:11:55.638Z,1018.59
2019-04-30T07:13:00.038Z,1018.59
2019-04-30T07:14:04.382Z,1018.58
2019-04-30T07:15:08.837Z,1018.58
2019-04-30T07:16:12.974Z,1018.57
2019-04-30T07:17:17.266Z,1018.59
2019-04-30T07:18:21.582Z,1018.55
2019-04-30T07:19:34.606Z,1018.52
2019-04-30T07:20:33.941Z,1018.55
2019-04-30T07:21:36.376Z,1018.54
2019-04-30T07:22:45.462Z,1018.55
2019-04-30T07:23:43.319Z,1018.55
2019-04-30T07:24:49.508Z,1018.55
2019-04-30T07:25:52.052Z,1018.55
2019-04-30T07:26:59.705Z,1018.56
2019-04-30T07:28:00.677Z,1018.56
2019-04-30T07:29:04.971Z,1018.56
2019-04-30T07:30:09.956Z,1018.52
2019-04-30T07:31:14.853Z,1018.54
2019-04-30T07:32:19.682Z,1018.52
2019-04-30T07:33:22.401Z,1018.52
2019-04-30T07:34:26.686Z,1018.53
2019-04-30T07:35:31.098Z,1018.53
2019-04-30T07:36:48.360Z,1018.51
2019-04-30T07:37:39.763Z,1018.52
2019-04-30T07:38:51.788Z,1018.52
2019-04-30T07:39:49.342Z,1018.51
2019-04-30T07:40:52.859Z,1018.51
2019-04-30T07:41:59.788Z,1018.49
2019-04-30T07:43:01.641Z,1018.49
2019-04-30T07:44:05.956Z,1018.48
2019-04-30T07:45:10.221Z,1018.48
2019-04-30T07:46:14.538Z,1018.49
2019-04-30T07:47:19.616Z,1018.48
2019-04-30T07:48:26.408Z,1018.50
2019-04-30T07:49:46.442Z,1018.48
2019-04-30T07:50:32.751Z,1018.48
2019-04-30T07:51:38.848Z,1018.47
2019-04-30T07:52:57.735Z,1018.48
2019-04-30T07:53:44.986Z,1018.47
2019-04-30T07:54:51.829Z,1018.47
2019-04-30T07:55:53.737Z,1018.46
2019-04-30T07:57:00.333Z,1018.46
2019-04-30T07:58:02.490Z,1018.46
2019-04-30T07:59:06.891Z,1018.48
2019-04-30T08:00:11.187Z,1018.48
2019-04-30T08:01:15.589Z,1018.50
2019-04-30T08:02:20.859Z,1018.50
2019-04-30T08:03:24.575Z,1018.50
2019-04-30T08:04:29.271Z,1018.50
2019-04-30T08:05:32.986Z,1018.51
2019-04-30T08:06:37.276Z,1018.51
2019-04-30T08:07:41.737Z,1018.50
2019-04-30T08:08:46.043Z,1018.50
2019-04-30T08:09:50.322Z,1018.49
2019-04-30T08:10:54.726Z,1018.51
2019-04-30T08:11:59.224Z,1018.53
2019-04-30T08:13:10.097Z,1018.54
2019-04-30T08:14:09.804Z,1018.52
2019-04-30T08:15:12.062Z,1018.54
2019-04-30T08:16:18.601Z,1018.53
2019-04-30T08:17:20.745Z,1018.51
2019-04-30T08:18:25.039Z,1018.50
2019-04-30T08:19:29.354Z,1018.49
2019-04-30T08:20:33.736Z,1018.45
2019-04-30T08:21:38.722Z,1018.49
2019-04-30T08:22:42.467Z,1018.54
2019-04-30T08:23:48.795Z,1018.52
2019-04-30T08:24:51.025Z,1018.51
2019-04-30T08:25:55.453Z,1018.52
2019-04-30T08:27:01.330Z,1018.53
2019-04-30T08:28:04.127Z,1018.54
2019-04-30T08:29:09.600Z,1018.54
2019-04-30T08:30:23.927Z,1018.52
2019-04-30T08:31:19.395Z,1018.51
2019-04-30T08:32:21.698Z,1018.51
2019-04-30T08:33:26.014Z,1018.53
2019-04-30T08:34:30.323Z,1018.51
2019-04-30T08:35:34.754Z,1018.50
2019-04-30T08:36:39.001Z,1018.48
2019-04-30T08:37:43.369Z,1018.47
2019-04-30T08:38:49.465Z,1018.49
2019-04-30T08:39:52.044Z,1018.51
2019-04-30T08:40:58.800Z,1018.50
2019-04-30T08:42:00.674Z,1018.52
2019-04-30T08:43:05.093Z,1018.54
2019-04-30T08:44:09.537Z,1018.54
2019-04-30T08:45:13.771Z,1018.51
2019-04-30T08:46:19.019Z,1018.54
2019-04-30T08:47:22.473Z,1018.50
2019-04-30T08:48:43.851Z,1018.51
2019-04-30T08:49:31.513Z,1018.49
2019-04-30T08:50:35.538Z,1018.48
2019-04-30T08:51:40.502Z,1018.52
2019-04-30T08:52:44.281Z,1018.49
2019-04-30T08:53:48.800Z,1018.49
2019-04-30T08:54:52.984Z,1018.47
2019-04-30T08:55:59.145Z,1018.46
2019-04-30T08:57:01.682Z,1018.45
2019-04-30T08:58:10.074Z,1018.41
2019-04-30T08:59:11.236Z,1018.44
2019-04-30T09:00:15.134Z,1018.42
2019-04-30T09:01:19.723Z,1018.42
2019-04-30T09:02:23.460Z,1018.41
2019-04-30T09:03:29.563Z,1018.42
2019-04-30T09:04:32.153Z,1018.40
2019-04-30T09:05:38.524Z,1018.40
2019-04-30T09:06:41.033Z,1018.40
2019-04-30T09:07:45.201Z,1018.41
2019-04-30T09:08:49.585Z,1018.41
2019-04-30T09:09:53.972Z,1018.43
2019-04-30T09:10:59.535Z,1018.42
2019-04-30T09:12:02.594Z,1018.42
2019-04-30T09:13:09.032Z,1018.43
2019-04-30T09:14:11.383Z,1018.45
2019-04-30T09:15:15.761Z,1018.44
2019-04-30T09:16:20.160Z,1018.41
2019-04-30T09:17:24.527Z,1018.37
2019-04-30T09:18:29.252Z,1018.36
2019-04-30T09:19:33.183Z,1018.32
2019-04-30T09:20:39.108Z,1018.31
2019-04-30T09:21:41.998Z,1018.28
2019-04-30T09:22:46.357Z,1018.30
2019-04-30T09:23:52.857Z,1018.27
2019-04-30T09:24:55.077Z,1018.26
2019-04-30T09:25:59.357Z,1018.25
2019-04-30T09:27:03.815Z,1018.24
2019-04-30T09:28:08.673Z,1018.25
2019-04-30T09:29:12.553Z,1018.27
2019-04-30T09:30:18.701Z,1018.25
2019-04-30T09:31:21.340Z,1018.24
2019-04-30T09:32:25.658Z,1018.26
2019-04-30T09:33:29.989Z,1018.24
2019-04-30T09:34:34.449Z,1018.23
2019-04-30T09:35:39.512Z,1018.22
2019-04-30T09:36:43.182Z,1018.24
2019-04-30T09:37:49.608Z,1018.21
2019-04-30T09:38:51.835Z,1018.21
2019-04-30T09:39:56.263Z,1018.22
2019-04-30T09:41:00.614Z,1018.21
2019-04-30T09:42:05.032Z,1018.21
2019-04-30T09:43:09.374Z,1018.19
2019-04-30T09:44:13.780Z,1018.20
2019-04-30T09:45:18.671Z,1018.19
2019-04-30T09:46:26.993Z,1018.19
2019-04-30T09:47:26.899Z,1018.19
2019-04-30T09:48:31.595Z,1018.17
2019-04-30T09:49:35.800Z,1018.18
2019-04-30T09:50:40.617Z,1018.20
2019-04-30T09:51:44.633Z,1018.18
2019-04-30T09:52:49.680Z,1018.16
2019-04-30T09:53:58.549Z,1018.17
2019-04-30T09:54:59.435Z,1018.18
2019-04-30T09:56:02.156Z,1018.18
2019-04-30T09:57:06.557Z,1018.19
2019-04-30T09:58:17.203Z,1018.19
2019-04-30T09:59:15.304Z,1018.22
2019-04-30T10:00:19.738Z,1018.23
2019-04-30T10:01:24.141Z,1018.20
2019-04-30T10:02:29.116Z,1018.22
2019-04-30T10:03:33.562Z,1018.19
2019-04-30T10:04:39.501Z,1018.22
2019-04-30T10:05:41.483Z,1018.17
2019-04-30T10:06:45.914Z,1018.18
2019-04-30T10:07:50.300Z,1018.20
2019-04-30T10:08:54.679Z,1018.20
2019-04-30T10:09:59.188Z,1018.21
2019-04-30T10:11:03.423Z,1018.19
2019-04-30T10:12:09.621Z,1018.21
2019-04-30T10:13:12.116Z,1018.19
2019-04-30T10:14:16.546Z,1018.16
2019-04-30T10:15:20.881Z,1018.15
2019-04-30T10:16:25.217Z,1018.14
2019-04-30T10:17:29.637Z,1018.14
2019-04-30T10:18:34.050Z,1018.11
2019-04-30T10:19:39.326Z,1018.10
2019-04-30T10:20:42.760Z,1018.09
2019-04-30T10:21:48.921Z,1018.09
2019-04-30T10:22:51.476Z,1018.07
2019-04-30T10:24:10.282Z,1018.07
2019-04-30T10:25:00.264Z,1018.03
2019-04-30T10:26:04.650Z,1018.01
2019-04-30T10:27:12.927Z,1018.03
2019-04-30T10:28:13.466Z,1018.00
2019-04-30T10:29:17.828Z,1017.98
2019-04-30T10:30:22.225Z,1017.96
2019-04-30T10:31:26.556Z,1017.91
2019-04-30T10:32:31.002Z,1017.86
2019-04-30T10:33:35.307Z,1017.87
2019-04-30T10:34:39.717Z,1017.84
2019-04-30T10:35:44.033Z,1017.84
2019-04-30T10:36:49.522Z,1017.83
2019-04-30T10:37:52.894Z,1017.83
2019-04-30T10:38:59.332Z,1017.82
2019-04-30T10:40:01.681Z,1017.81
2019-04-30T10:41:06.000Z,1017.81
2019-04-30T10:42:10.400Z,1017.77
2019-04-30T10:43:14.791Z,1017.74
2019-04-30T10:44:19.118Z,1017.71
2019-04-30T10:45:23.516Z,1017.68
2019-04-30T10:46:27.901Z,1017.66
2019-04-30T10:47:32.755Z,1017.66
2019-04-30T10:48:36.590Z,1017.64
2019-04-30T10:49:40.976Z,1017.63
2019-04-30T10:50:45.379Z,1017.63
2019-04-30T10:51:49.800Z,1017.63
2019-04-30T10:52:54.189Z,1017.60
2019-04-30T10:53:59.213Z,1017.62
2019-04-30T10:55:04.511Z,1017.62
2019-04-30T10:56:09.580Z,1017.60
2019-04-30T10:57:11.678Z,1017.60
2019-04-30T10:58:16.054Z,1017.63
2019-04-30T10:59:20.444Z,1017.58
2019-04-30T11:00:24.835Z,1017.58
2019-04-30T11:01:29.262Z,1017.54
2019-04-30T11:02:33.435Z,1017.54
2019-04-30T11:03:39.091Z,1017.54
2019-04-30T11:04:42.203Z,1017.53
2019-04-30T11:05:46.596Z,1017.54
2019-04-30T11:06:50.927Z,1017.55
2019-04-30T11:07:55.427Z,1017.50
2019-04-30T11:08:59.777Z,1017.47
2019-04-30T11:10:04.191Z,1017.43
2019-04-30T11:11:08.478Z,1017.41
2019-04-30T11:12:15.953Z,1017.41
2019-04-30T11:13:19.403Z,1017.40
2019-04-30T11:14:23.716Z,1017.39
2019-04-30T11:15:29.256Z,1017.40
2019-04-30T11:16:32.425Z,1017.43
2019-04-30T11:17:37.055Z,1017.42
2019-04-30T11:18:41.449Z,1017.39
2019-04-30T11:19:45.888Z,1017.39
2019-04-30T11:20:50.301Z,1017.40
2019-04-30T11:21:54.565Z,1017.38
2019-04-30T11:22:59.108Z,1017.37
2019-04-30T11:24:03.387Z,1017.37
2019-04-30T11:25:09.771Z,1017.38
2019-04-30T11:26:12.654Z,1017.34
2019-04-30T11:27:17.109Z,1017.36
2019-04-30T11:28:21.396Z,1017.36
2019-04-30T11:29:25.353Z,1017.36
2019-04-30T11:30:30.155Z,1017.30
2019-04-30T11:31:34.250Z,1017.32
2019-04-30T11:32:38.763Z,1017.31
2019-04-30T11:33:43.045Z,1017.30
2019-04-30T11:34:47.253Z,1017.29
2019-04-30T11:36:02.024Z,1017.30
2019-04-30T11:36:56.126Z,1017.28
2019-04-30T11:38:00.563Z,1017.25
2019-04-30T11:39:04.830Z,1017.23
2019-04-30T11:40:09.223Z,1017.24
2019-04-30T11:41:13.699Z,1017.21
2019-04-30T11:42:18.027Z,1017.21
2019-04-30T11:43:22.524Z,1017.20
2019-04-30T11:44:31.207Z,1017.15
2019-04-30T11:45:31.358Z,1017.16
2019-04-30T11:46:35.699Z,1017.15
2019-04-30T11:47:40.071Z,1017.10
2019-04-30T11:48:44.447Z,1017.04
2019-04-30T11:49:48.795Z,1017.02
2019-04-30T11:50:53.289Z,1017.03
2019-04-30T11:51:57.709Z,1017.01
2019-04-30T11:53:19.516Z,1017.00
2019-04-30T11:54:06.421Z,1017.00
2019-04-30T11:55:10.870Z,1016.99
2019-04-30T11:56:15.208Z,1016.98
2019-04-30T11:57:19.676Z,1016.94
2019-04-30T11:58:24.036Z,1016.95
2019-04-30T11:59:29.762Z,1016.93
2019-04-30T12:00:32.972Z,1016.91
2019-04-30T12:01:37.287Z,1016.90
2019-04-30T12:02:41.703Z,1016.89
2019-04-30T12:03:46.058Z,1016.84
2019-04-30T12:04:50.455Z,1016.86
2019-04-30T12:05:54.966Z,1016.84
2019-04-30T12:06:59.346Z,1016.85
2019-04-30T12:08:03.729Z,1016.82
2019-04-30T12:09:09.149Z,1016.83
2019-04-30T12:10:12.512Z,1016.77
2019-04-30T12:11:16.848Z,1016.76
2019-04-30T12:12:21.233Z,1016.77
2019-04-30T12:13:25.619Z,1016.75
2019-04-30T12:14:29.998Z,1016.71
2019-04-30T12:15:34.337Z,1016.73
2019-04-30T12:16:39.553Z,1016.71
2019-04-30T12:17:43.229Z,1016.71
2019-04-30T12:18:47.581Z,1016.70
2019-04-30T12:19:51.939Z,1016.70
2019-04-30T12:20:56.334Z,1016.66
2019-04-30T12:22:00.758Z,1016.67
2019-04-30T12:23:05.144Z,1016.64
2019-04-30T12:24:09.505Z,1016.60
2019-04-30T12:25:13.900Z,1016.64
2019-04-30T12:26:19.050Z,1016.65
2019-04-30T12:27:22.677Z,1016.61
2019-04-30T12:28:27.441Z,1016.59
2019-04-30T12:29:31.525Z,1016.58
2019-04-30T12:30:35.908Z,1016.62
2019-04-30T12:31:40.313Z,1016.64
2019-04-30T12:32:44.708Z,1016.63
2019-04-30T12:33:49.139Z,1016.62
2019-04-30T12:34:53.493Z,1016.56
2019-04-30T12:35:59.594Z,1016.57
2019-04-30T12:37:02.453Z,1016.54
2019-04-30T12:38:08.456Z,1016.54
2019-04-30T12:39:11.257Z,1016.56
2019-04-30T12:40:26.593Z,1016.56
2019-04-30T12:41:20.073Z,1016.56
2019-04-30T12:42:24.474Z,1016.54
2019-04-30T12:43:28.877Z,1016.51
2019-04-30T12:44:33.271Z,1016.52
2019-04-30T12:45:39.385Z,1016.49
2019-04-30T12:46:42.198Z,1016.54
2019-04-30T12:47:46.545Z,1016.54
2019-04-30T12:48:50.996Z,1016.53
2019-04-30T12:49:55.418Z,1016.50
2019-04-30T12:50:59.801Z,1016.52
2019-04-30T12:52:04.213Z,1016.50
2019-04-30T12:53:09.431Z,1016.49
2019-04-30T12:54:13.116Z,1016.47
2019-04-30T12:55:17.441Z,1016.46
2019-04-30T12:56:27.001Z,1016.45
2019-04-30T12:57:26.205Z,1016.43